Time;durP1;ratioP1;P1;durP2;ratioP2;P2;SDS_P1;SDS_P2;PMS_P1;PMS_P2;Temp;Humidity;BMP_temperature;BMP_pressure;BME280_temperature;BME280_humidity;BME280_pressure;Samples;Min_cycle;Max_cycle;Signal;HPM_P1;HPM_P2
2021/01/25 00:01:57;;;;;;;14.18;7.55;;;;;;;-0.21;95.48;98379.69;4998531;28;20050;-75
2021/01/25 00:04:24;;;;;;;17.27;8.85;;;;;;;-0.18;95.31;98379.56;5029800;28;20132;-73
2021/01/25 00:06:50;;;;;;;12.05;8.43;;;;;;;-0.18;95.05;98373.44;4998649;28;20054;-75
2021/01/25 00:09:16;;;;;;;10.52;7.18;;;;;;;-0.13;95.02;98383.75;5013894;28;20062;-78
2021/01/25 00:11:42;;;;;;;13.30;7.88;;;;;;;-0.13;95.42;98379.34;4998492;28;20058;-75
2021/01/25 00:14:08;;;;;;;13.02;7.88;;;;;;;-0.16;95.03;98376.88;4998189;28;20066;-73
2021/01/25 00:16:35;;;;;;;14.05;8.68;;;;;;;-0.13;95.36;98375.88;4997570;28;20054;-76
2021/01/25 00:19:01;;;;;;;17.60;8.20;;;;;;;-0.16;95.73;98377.69;5029698;28;20058;-74
2021/01/25 00:21:28;;;;;;;12.90;8.23;;;;;;;-0.20;95.00;98360.44;5029567;28;20055;-77
2021/01/25 00:23:54;;;;;;;15.25;8.07;;;;;;;-0.12;94.67;98374.94;4998273;28;20105;-74
2021/01/25 00:26:20;;;;;;;11.65;7.90;;;;;;;-0.10;95.41;98376.59;4998043;28;20087;-75
2021/01/25 00:28:46;;;;;;;16.92;8.07;;;;;;;-0.07;94.85;98378.19;4998017;28;20104;-74
2021/01/25 00:31:12;;;;;;;14.20;8.13;;;;;;;-0.17;95.59;98367.28;4996963;28;20113;-74
2021/01/25 00:33:38;;;;;;;13.93;7.40;;;;;;;-0.23;95.53;98363.16;5013401;28;20062;-74
2021/01/25 00:36:05;;;;;;;12.10;7.97;;;;;;;-0.15;95.26;98370.69;4998205;28;20073;-75
2021/01/25 00:38:31;;;;;;;13.48;8.57;;;;;;;-0.24;95.56;98361.47;5004551;28;20125;-76
2021/01/25 00:40:57;;;;;;;12.95;8.73;;;;;;;-0.05;95.02;98385.06;5017635;28;20057;-77
2021/01/25 00:43:23;;;;;;;12.75;8.60;;;;;;;-0.01;94.81;98386.63;5000208;28;20352;-75
2021/01/25 00:45:49;;;;;;;11.75;8.30;;;;;;;-0.14;94.98;98377.63;5015893;28;20054;-75
2021/01/25 00:48:16;;;;;;;10.55;7.75;;;;;;;-0.09;95.07;98387.91;5017218;28;20054;-76
2021/01/25 00:50:42;;;;;;;14.38;8.57;;;;;;;-0.06;94.91;98387.78;4999943;28;20140;-78
2021/01/25 00:53:08;;;;;;;10.95;8.13;;;;;;;-0.11;94.92;98374.03;5017484;28;20053;-75
2021/01/25 00:55:34;;;;;;;13.73;8.35;;;;;;;-0.16;94.60;98364.59;5017271;28;20080;-74
2021/01/25 00:58:01;;;;;;;11.40;7.45;;;;;;;-0.06;95.18;98380.75;5017082;28;20062;-77
2021/01/25 01:00:27;;;;;;;15.60;9.32;;;;;;;-0.04;94.74;98383.31;5016963;28;20466;-75
2021/01/25 01:02:54;;;;;;;15.75;7.85;;;;;;;-0.04;94.71;98386.75;5016939;28;20058;-74
2021/01/25 01:05:20;;;;;;;11.05;8.15;;;;;;;-0.08;95.16;98379.97;5017181;28;20057;-76
2021/01/25 01:07:46;;;;;;;10.65;7.78;;;;;;;-0.12;94.87;98382.81;5017096;28;20046;-75
2021/01/25 01:10:13;;;;;;;15.05;8.18;;;;;;;-0.06;94.91;98385.16;4999653;28;20061;-75
2021/01/25 01:12:39;;;;;;;13.68;8.48;;;;;;;-0.10;95.15;98387.06;5016691;28;20100;-76
2021/01/25 01:15:10;;;;;;;13.90;8.10;;;;;;;-0.10;95.36;98386.22;5015747;28;20358;-75
2021/01/25 01:17:37;;;;;;;;;;;;;;;-0.06;95.53;98393.88;5017283;28;20072;-77
2021/01/25 01:20:05;;;;;;;14.70;8.15;;;;;;;-0.05;94.87;98389.47;5016850;28;19932;-76
2021/01/25 01:22:32;;;;;;;14.10;8.80;;;;;;;-0.02;94.85;98398.06;5016494;28;20060;-75
2021/01/25 01:24:58;;;;;;;17.02;8.73;;;;;;;-0.09;95.16;98396.66;5016528;28;20420;-74
2021/01/25 01:27:24;;;;;;;14.27;9.38;;;;;;;-0.04;95.25;98391.19;5016725;28;20053;-76
2021/01/25 01:29:52;;;;;;;15.18;9.00;;;;;;;-0.02;94.82;98399.81;5015734;28;20065;-75
2021/01/25 01:32:21;;;;;;;12.88;8.25;;;;;;;-0.11;95.10;98384.53;5016720;28;20112;-76
2021/01/25 01:34:48;;;;;;;14.57;8.55;;;;;;;0.02;94.97;98406.63;5017280;28;20042;-76
2021/01/25 01:37:14;;;;;;;13.95;8.52;;;;;;;0.00;95.00;98403.25;5016288;28;20506;-74
2021/01/25 01:39:40;;;;;;;11.63;7.53;;;;;;;-0.04;95.37;98412.16;4999642;28;20372;-75
2021/01/25 01:42:13;;;;;;;14.68;9.25;;;;;;;-0.05;95.51;98407.84;4996651;28;20384;-75
2021/01/25 01:44:39;;;;;;;13.68;8.80;;;;;;;-0.05;95.45;98410.47;4996385;28;20407;-74
2021/01/25 01:47:05;;;;;;;12.35;8.48;;;;;;;-0.04;95.35;98406.91;4995696;28;20054;-75
2021/01/25 01:49:31;;;;;;;14.05;8.93;;;;;;;-0.11;95.95;98406.31;4996711;28;20046;-73
2021/01/25 01:51:57;;;;;;;16.48;9.10;;;;;;;-0.12;96.11;98402.00;4996566;28;20054;-75
2021/01/25 01:54:23;;;;;;;12.52;9.07;;;;;;;-0.11;96.44;98403.72;4996331;28;20388;-76
2021/01/25 01:56:49;;;;;;;12.70;8.60;;;;;;;-0.07;96.00;98413.16;4996378;28;20081;-76
2021/01/25 01:59:16;;;;;;;12.73;8.80;;;;;;;-0.19;95.96;98390.09;4996244;28;20050;-76
2021/01/25 02:01:42;;;;;;;15.25;9.00;;;;;;;-0.10;96.26;98401.94;4995160;28;20518;-75
2021/01/25 02:04:10;;;;;;;12.43;8.75;;;;;;;-0.11;96.20;98408.94;4995233;28;20130;-76
2021/01/25 02:06:36;;;;;;;11.90;8.60;;;;;;;-0.15;96.38;98392.50;4996598;28;20113;-75
2021/01/25 02:09:04;;;;;;;12.57;8.98;;;;;;;-0.11;96.09;98406.31;4996058;28;20051;-77
2021/01/25 02:11:32;;;;;;;13.95;9.93;;;;;;;-0.09;96.35;98408.91;4996129;28;20053;-75
2021/01/25 02:14:00;;;;;;;13.18;8.38;;;;;;;-0.11;96.06;98413.38;4996303;28;20054;-75
2021/01/25 02:16:40;;;;;;;14.25;8.23;;;;;;;-0.04;96.17;98427.91;4995141;28;20460;-75
2021/01/25 02:19:13;;;;;;;14.27;9.07;;;;;;;-0.13;95.89;98399.47;4995943;28;20057;-76
2021/01/25 02:22:07;;;;;;;13.05;8.70;;;;;;;0.06;95.51;98425.72;4996103;28;20057;-76
2021/01/25 02:24:42;;;;;;;12.07;8.93;;;;;;;0.08;95.60;98422.09;4994990;28;20066;-75
2021/01/25 02:27:36;;;;;;;10.55;7.93;;;;;;;0.05;95.74;98419.59;4994873;28;20046;-77
2021/01/25 02:30:05;;;;;;;13.57;8.95;;;;;;;-0.07;95.21;98402.66;4995789;28;20096;-75
2021/01/25 02:32:35;;;;;;;12.07;7.97;;;;;;;-0.12;95.46;98406.41;4995977;28;20058;-76
2021/01/25 02:35:06;;;;;;;14.65;9.60;;;;;;;0.08;95.56;98437.84;4995893;28;20134;-76
2021/01/25 02:37:34;;;;;;;13.50;8.23;;;;;;;0.02;95.58;98426.75;4995942;28;20117;-74
2021/01/25 02:40:02;;;;;;;13.65;9.38;;;;;;;0.09;95.13;98420.31;5014242;28;20065;-74
2021/01/25 02:42:29;;;;;;;14.48;8.98;;;;;;;0.09;95.66;98439.53;5014188;28;20076;-74
2021/01/25 02:44:58;;;;;;;15.68;9.25;;;;;;;0.05;95.65;98439.75;5014803;28;20065;-75
2021/01/25 02:47:26;;;;;;;15.48;9.95;;;;;;;0.08;95.35;98436.97;5015279;28;20100;-74
2021/01/25 02:49:52;;;;;;;15.48;11.35;;;;;;;0.07;95.43;98435.28;5015407;28;20081;-73
2021/01/25 02:52:19;;;;;;;16.33;11.43;;;;;;;0.06;96.19;98449.31;5015715;28;20050;-77
2021/01/25 02:54:45;;;;;;;18.55;11.35;;;;;;;0.03;95.76;98439.81;5016105;28;20054;-75
2021/01/25 02:57:13;;;;;;;16.02;11.10;;;;;;;-0.09;95.98;98422.00;5014188;28;20084;-75
2021/01/25 02:59:40;;;;;;;15.00;11.02;;;;;;;0.02;95.70;98440.75;5015216;28;20061;-75
2021/01/25 03:02:08;;;;;;;17.00;10.55;;;;;;;0.02;95.80;98438.13;5015829;28;20108;-75
2021/01/25 03:04:35;;;;;;;15.07;11.52;;;;;;;0.06;95.68;98444.91;5015977;28;20137;-73
2021/01/25 03:07:04;;;;;;;11.20;8.73;;;;;;;0.09;95.79;98447.41;5015744;28;20112;-72
2021/01/25 03:09:31;;;;;;;12.35;9.63;;;;;;;0.03;95.52;98441.56;5014432;28;20054;-76
2021/01/25 03:12:00;;;;;;;10.95;8.57;;;;;;;0.04;96.13;98451.16;5014292;28;20066;-74
2021/01/25 03:14:27;;;;;;;10.30;7.57;;;;;;;0.12;95.89;98460.38;5017053;28;20100;-74
2021/01/25 03:16:53;;;;;;;10.32;7.93;;;;;;;0.13;95.40;98451.56;5019087;28;20045;-75
2021/01/25 03:19:19;;;;;;;12.05;9.30;;;;;;;0.11;95.75;98457.84;5019322;28;20124;-73
2021/01/25 03:21:50;;;;;;;10.43;8.57;;;;;;;0.13;95.89;98458.59;5019289;28;20103;-75
2021/01/25 03:24:16;;;;;;;;;;;;;;;0.10;95.71;98470.09;5019572;28;20046;-75
2021/01/25 03:26:43;;;;;;;9.65;7.05;;;;;;;-0.04;96.01;98456.75;5019303;28;20290;-75
2021/01/25 03:29:10;;;;;;;10.48;7.80;;;;;;;0.02;95.79;98459.09;5019331;28;20054;-74
2021/01/25 03:31:37;;;;;;;10.93;8.07;;;;;;;-0.02;95.99;98457.53;5019597;28;20050;-73
2021/01/25 03:34:04;;;;;;;12.23;7.50;;;;;;;0.09;95.82;98468.38;5018737;28;20332;-73
2021/01/25 03:36:31;;;;;;;10.77;8.48;;;;;;;0.07;95.98;98475.50;5017984;28;20062;-75
2021/01/25 03:38:58;;;;;;;12.35;8.00;;;;;;;0.06;96.32;98471.13;5007323;28;20122;-76
2021/01/25 03:41:24;;;;;;;9.52;7.18;;;;;;;0.10;95.75;98471.84;5000980;28;20050;-76
2021/01/25 03:43:51;;;;;;;11.00;7.68;;;;;;;0.15;96.41;98472.50;5000626;28;20046;-75
2021/01/25 03:46:17;;;;;;;12.55;7.25;;;;;;;0.11;95.79;98474.41;5030337;28;20104;-74
2021/01/25 03:48:43;;;;;;;9.00;6.68;;;;;;;-0.02;95.79;98455.75;4997864;28;20065;-74
2021/01/25 03:51:09;;;;;;;8.02;6.22;;;;;;;0.09;96.81;98480.66;4998792;28;20073;-75
2021/01/25 03:53:36;;;;;;;7.50;6.28;;;;;;;0.07;95.71;98472.88;4998794;28;20116;-77
2021/01/25 03:56:02;;;;;;;9.45;7.05;;;;;;;0.10;96.20;98485.84;4998914;28;20050;-74
2021/01/25 03:58:29;;;;;;;8.25;6.43;;;;;;;0.07;96.04;98490.38;4999141;28;20112;-75
2021/01/25 04:00:55;;;;;;;8.85;6.25;;;;;;;0.04;96.28;98493.97;4997711;28;20061;-75
2021/01/25 04:03:21;;;;;;;11.77;6.55;;;;;;;0.05;96.57;98490.44;4998872;28;20054;-74
2021/01/25 04:05:47;;;;;;;7.43;5.72;;;;;;;0.04;95.97;98493.97;4998614;28;20050;-76
2021/01/25 04:08:14;;;;;;;7.47;6.50;;;;;;;0.08;96.12;98499.94;4998426;28;20619;-75
2021/01/25 04:10:40;;;;;;;7.35;5.95;;;;;;;0.05;96.07;98500.91;4998393;28;20050;-75
2021/01/25 04:13:07;;;;;;;11.05;6.18;;;;;;;0.05;96.48;98510.56;4998468;28;20088;-74
2021/01/25 04:15:33;;;;;;;9.30;5.80;;;;;;;0.07;96.46;98509.59;4998341;28;20050;-75
2021/01/25 04:17:59;;;;;;;7.00;5.88;;;;;;;0.10;95.99;98517.31;4998301;28;20054;-75
2021/01/25 04:20:26;;;;;;;6.82;5.68;;;;;;;0.14;96.17;98512.78;5013356;28;20396;-74
2021/01/25 04:22:52;;;;;;;8.20;5.78;;;;;;;0.17;95.77;98519.66;4998145;28;20065;-73
2021/01/25 04:25:18;;;;;;;6.50;5.30;;;;;;;0.25;95.87;98528.91;5029174;28;20097;-74
2021/01/25 04:27:45;;;;;;;7.65;5.35;;;;;;;0.28;95.74;98524.44;4998345;28;20058;-74
2021/01/25 04:30:12;;;;;;;6.60;5.82;;;;;;;0.23;95.05;98516.75;5029775;28;20050;-74
2021/01/25 04:32:38;;;;;;;9.02;6.00;;;;;;;0.32;94.92;98521.59;4998228;28;20059;-73
2021/01/25 04:35:07;;;;;;;12.50;6.45;;;;;;;0.35;95.49;98526.72;4998232;28;20042;-73
2021/01/25 04:37:33;;;;;;;8.23;6.00;;;;;;;0.40;95.59;98531.75;4997892;28;20329;-76
2021/01/25 04:39:59;;;;;;;10.68;6.32;;;;;;;0.37;95.05;98531.88;5016221;28;20116;-75
2021/01/25 04:42:26;;;;;;;8.07;5.82;;;;;;;0.38;94.88;98529.19;5017443;28;20054;-73
2021/01/25 04:44:52;;;;;;;9.75;6.30;;;;;;;0.38;95.01;98534.44;5015993;28;20053;-73
2021/01/25 04:47:23;;;;;;;11.30;6.45;;;;;;;0.44;94.92;98532.47;5017434;28;20057;-73
2021/01/25 04:49:50;;;;;;;10.88;6.40;;;;;;;0.36;94.65;98532.78;5017302;28;20064;-76
2021/01/25 04:52:18;;;;;;;8.40;6.43;;;;;;;0.25;94.77;98528.91;5017184;28;20061;-74
2021/01/25 04:54:47;;;;;;;8.80;6.03;;;;;;;0.29;94.48;98528.75;5017243;28;20058;-73
2021/01/25 04:57:16;;;;;;;13.10;6.65;;;;;;;0.34;94.94;98548.63;5017233;28;20439;-73
2021/01/25 04:59:44;;;;;;;13.93;7.40;;;;;;;0.36;95.00;98556.41;5017189;28;20050;-75
2021/01/25 05:02:11;;;;;;;17.33;8.38;;;;;;;0.40;95.06;98553.56;5016991;28;20467;-76
2021/01/25 05:04:39;;;;;;;12.25;7.20;;;;;;;0.44;94.76;98556.91;5016864;28;20337;-74
2021/01/25 05:07:06;;;;;;;16.95;7.53;;;;;;;0.42;95.02;98548.28;5016852;28;20054;-74
2021/01/25 05:09:34;;;;;;;12.18;7.70;;;;;;;0.47;94.74;98563.81;5017129;28;20056;-76
2021/01/25 05:12:02;;;;;;;12.20;7.43;;;;;;;0.46;94.68;98567.34;5015880;28;20053;-74
2021/01/25 05:14:42;;;;;;;14.10;7.53;;;;;;;0.52;94.67;98569.72;5016914;28;20076;-74
2021/01/25 05:17:12;;;;;;;16.40;7.75;;;;;;;0.51;94.41;98573.25;5016643;28;20166;-77
2021/01/25 05:19:49;;;;;;;16.45;8.02;;;;;;;0.49;94.72;98572.47;5016988;28;20130;-74
2021/01/25 05:22:20;;;;;;;12.50;7.75;;;;;;;0.51;94.90;98570.63;5016745;28;20049;-76
2021/01/25 05:24:53;;;;;;;15.77;8.02;;;;;;;0.42;95.02;98560.56;5016581;28;20046;-76
2021/01/25 05:27:24;;;;;;;17.80;8.07;;;;;;;0.40;94.91;98556.19;5016393;28;20053;-76
2021/01/25 05:29:51;;;;;;;12.32;7.93;;;;;;;0.54;94.45;98581.84;5016837;28;20065;-74
2021/01/25 05:32:18;;;;;;;21.90;8.07;;;;;;;0.49;94.44;98582.97;5015553;28;20053;-76
2021/01/25 05:34:48;;;;;;;18.95;8.23;;;;;;;0.47;94.70;98592.69;5016771;28;20133;-74
2021/01/25 05:37:16;;;;;;;13.75;8.60;;;;;;;0.56;94.25;98597.53;5015317;28;20054;-75
2021/01/25 05:39:45;;;;;;;24.02;8.88;;;;;;;0.44;94.31;98575.28;5000159;28;20101;-74
2021/01/25 05:42:11;;;;;;;20.77;9.15;;;;;;;0.52;94.63;98598.59;4996474;28;20451;-74
2021/01/25 05:44:38;;;;;;;20.42;9.63;;;;;;;0.49;95.12;98603.97;4996450;28;20361;-74
2021/01/25 05:47:06;;;;;;;14.25;9.30;;;;;;;0.51;95.24;98602.13;5030381;28;20107;-75
2021/01/25 05:49:32;;;;;;;21.38;9.20;;;;;;;0.52;94.66;98603.84;4996701;28;20054;-74
2021/01/25 05:51:58;;;;;;;19.23;9.57;;;;;;;0.52;94.35;98606.47;4996202;28;20061;-73
2021/01/25 05:54:25;;;;;;;15.32;9.80;;;;;;;0.54;94.85;98613.34;4994837;28;20050;-72
2021/01/25 05:56:52;;;;;;;16.20;10.07;;;;;;;0.56;94.82;98612.44;5027861;28;20050;-75
2021/01/25 05:59:19;;;;;;;19.80;10.40;;;;;;;0.46;94.81;98611.97;4996609;28;20101;-72
2021/01/25 06:01:49;;;;;;;16.58;9.43;;;;;;;0.52;94.78;98622.22;5007124;28;20061;-74
2021/01/25 06:04:21;;;;;;;16.50;10.37;;;;;;;0.51;95.02;98631.88;5015022;28;20050;-73
2021/01/25 06:07:01;;;;;;;17.55;10.38;;;;;;;0.56;94.94;98639.53;5016034;28;20056;-75
2021/01/25 06:09:34;;;;;;;15.60;9.93;;;;;;;0.57;94.85;98640.38;5047693;28;20061;-73
2021/01/25 06:12:05;;;;;;;19.23;10.55;;;;;;;0.53;94.83;98642.28;5015665;28;20049;-73
2021/01/25 06:14:37;;;;;;;;;;;;;;;0.65;94.53;98646.16;5016424;28;20089;-75
2021/01/25 06:17:03;;;;;;;14.75;10.70;;;;;;;0.56;94.43;98643.94;5015521;28;19921;-73
2021/01/25 06:19:31;;;;;;;13.68;10.85;;;;;;;0.54;95.13;98644.00;5015565;28;20140;-77
2021/01/25 06:21:58;;;;;;;17.77;11.32;;;;;;;0.54;95.02;98644.84;5047626;28;20056;-76
2021/01/25 06:24:26;;;;;;;24.83;11.77;;;;;;;0.58;94.80;98647.31;5015661;28;20049;-76
2021/01/25 06:26:54;;;;;;;19.48;12.02;;;;;;;0.55;95.09;98645.72;5015418;28;20060;-75
2021/01/25 06:29:20;;;;;;;17.73;11.25;;;;;;;0.62;94.57;98662.91;4995208;28;20110;-75
2021/01/25 06:31:55;;;;;;;16.80;11.75;;;;;;;0.43;95.27;98636.59;4996119;28;20096;-74
2021/01/25 06:34:23;;;;;;;17.42;12.02;;;;;;;0.52;94.95;98656.34;5005213;28;20100;-77
2021/01/25 06:36:51;;;;;;;15.52;11.55;;;;;;;0.47;95.03;98653.91;5008619;28;20494;-75
2021/01/25 06:39:24;;;;;;;15.80;11.02;;;;;;;0.49;94.95;98667.00;5045459;28;20594;-77
2021/01/25 06:41:59;;;;;;;16.63;11.70;;;;;;;0.59;94.66;98678.78;5013338;28;20057;-76
2021/01/25 06:44:27;;;;;;;21.30;12.45;;;;;;;0.43;95.00;98678.59;5013178;28;20486;-76
2021/01/25 06:46:58;;;;;;;25.80;12.77;;;;;;;0.52;95.08;98687.84;5013011;28;20163;-77
2021/01/25 06:49:25;;;;;;;;;;;;;;;0.50;94.90;98690.53;5014787;28;20333;-77
2021/01/25 06:51:53;;;;;;;20.02;12.32;;;;;;;0.54;95.25;98694.75;5014049;28;20235;-77
2021/01/25 06:54:23;;;;;;;24.63;12.73;;;;;;;0.52;95.41;98699.22;5012227;28;20054;-78
2021/01/25 06:56:55;;;;;;;22.40;13.25;;;;;;;0.52;95.24;98703.59;5015382;28;20060;-76
2021/01/25 06:59:23;;;;;;;25.58;13.27;;;;;;;0.51;95.43;98697.50;5015047;28;20421;-75
2021/01/25 07:01:51;;;;;;;22.83;15.55;;;;;;;0.54;94.71;98722.75;5032375;28;20066;-75
2021/01/25 07:04:24;;;;;;;27.17;16.15;;;;;;;0.56;94.81;98726.19;4984854;28;20121;-74
2021/01/25 07:06:53;;;;;;;25.40;15.13;;;;;;;0.60;95.06;98726.91;4979979;28;20428;-75
2021/01/25 07:09:27;;;;;;;23.65;15.02;;;;;;;0.55;95.46;98734.97;5003740;28;20112;-74
2021/01/25 07:11:55;;;;;;;25.10;15.63;;;;;;;0.50;95.05;98726.44;5005022;28;20386;-75
2021/01/25 07:14:28;;;;;;;24.55;16.13;;;;;;;0.49;95.63;98732.63;5007441;28;20057;-74
2021/01/25 07:16:56;;;;;;;31.27;16.50;;;;;;;0.48;95.37;98741.41;5001199;28;20448;-75
2021/01/25 07:19:24;;;;;;;25.98;15.85;;;;;;;0.47;95.87;98727.44;5005422;28;20428;-74
2021/01/25 07:21:51;;;;;;;33.55;17.10;;;;;;;0.60;95.42;98751.38;5001463;28;20195;-73
2021/01/25 07:24:20;;;;;;;29.70;18.17;;;;;;;0.56;95.62;98756.81;5001260;28;20053;-74
2021/01/25 07:26:55;;;;;;;30.25;18.77;;;;;;;0.50;96.11;98758.78;5004299;28;20423;-74
2021/01/25 07:29:22;;;;;;;30.48;19.48;;;;;;;0.46;95.97;98761.59;5002336;28;20050;-77
2021/01/25 07:31:49;;;;;;;30.75;18.88;;;;;;;0.55;95.84;98771.75;5005345;28;20053;-77
2021/01/25 07:34:15;;;;;;;29.88;18.17;;;;;;;0.57;95.82;98774.28;5005026;28;20053;-74
2021/01/25 07:36:43;;;;;;;31.10;19.50;;;;;;;0.49;95.83;98777.25;5011031;28;20109;-75
2021/01/25 07:39:11;;;;;;;33.38;20.90;;;;;;;0.43;96.40;98778.34;5006135;28;20061;-77
2021/01/25 07:41:38;;;;;;;34.65;20.08;;;;;;;0.43;96.19;98774.88;5003441;28;20046;-77
2021/01/25 07:44:08;;;;;;;35.78;21.88;;;;;;;0.47;96.14;98790.44;5000338;28;20046;-76
2021/01/25 07:46:35;;;;;;;35.45;20.23;;;;;;;0.42;96.57;98796.81;5003466;28;20096;-75
2021/01/25 07:49:06;;;;;;;35.30;20.52;;;;;;;0.52;95.94;98804.22;5004638;28;20395;-75
2021/01/25 07:51:33;;;;;;;32.97;20.67;;;;;;;0.48;96.11;98807.06;5005038;28;20042;-74
2021/01/25 07:54:01;;;;;;;37.10;21.73;;;;;;;0.42;96.11;98812.53;5004174;28;20134;-75
2021/01/25 07:56:28;;;;;;;39.13;21.30;;;;;;;0.35;96.05;98817.19;5003265;28;20043;-75
2021/01/25 07:59:08;;;;;;;35.88;21.00;;;;;;;0.31;96.64;98820.84;5006247;28;20070;-75
2021/01/25 08:01:51;;;;;;;35.13;19.95;;;;;;;0.24;96.21;98835.97;5003728;28;20081;-76
2021/01/25 08:04:21;;;;;;;35.33;19.05;;;;;;;0.22;95.90;98837.81;5007458;28;20047;-76
2021/01/25 08:06:52;;;;;;;38.92;20.67;;;;;;;0.17;96.51;98847.66;5008850;28;20046;-76
2021/01/25 08:09:20;;;;;;;27.63;15.03;;;;;;;0.15;96.76;98852.94;5004941;28;20348;-76
2021/01/25 08:11:46;;;;;;;35.08;18.92;;;;;;;0.12;96.72;98858.31;5008858;28;20298;-76
2021/01/25 08:14:43;;;;;;;45.13;21.15;;;;;;;0.05;97.14;98867.34;5003659;28;20264;-75
2021/01/25 08:17:16;;;;;;;38.28;20.45;;;;;;;0.01;97.02;98861.38;5040093;28;20420;-75
2021/01/25 08:19:51;;;;;;;40.60;21.27;;;;;;;-0.04;97.23;98856.28;5004874;28;20437;-75
2021/01/25 08:22:22;;;;;;;39.13;20.35;;;;;;;0.04;97.27;98876.97;5006176;28;20415;-75
2021/01/25 08:25:01;;;;;;;41.53;20.35;;;;;;;0.05;97.15;98881.31;5007799;28;20046;-75
2021/01/25 08:27:30;;;;;;;47.83;22.25;;;;;;;0.06;97.42;98885.63;4977371;28;20051;-75
2021/01/25 08:30:06;;;;;;;40.00;21.30;;;;;;;0.04;97.15;98892.72;5008947;28;20065;-75
2021/01/25 08:32:51;;;;;;;41.85;20.58;;;;;;;0.07;97.14;98897.00;4978461;28;20133;-74
2021/01/25 08:35:39;;;;;;;36.75;19.77;;;;;;;0.02;97.05;98893.69;4978679;28;20086;-75
2021/01/25 08:38:28;;;;;;;33.47;19.88;;;;;;;0.02;97.02;98910.28;4983210;28;20072;-76
2021/01/25 08:40:57;;;;;;;35.67;20.98;;;;;;;-0.03;97.73;98912.22;5017231;28;20447;-76
2021/01/25 08:43:32;;;;;;;39.08;20.95;;;;;;;-0.04;97.75;98918.38;5017060;28;20049;-76
2021/01/25 08:46:17;;;;;;;42.50;21.65;;;;;;;0.05;97.72;98925.91;5017180;28;20069;-76
2021/01/25 08:48:44;;;;;;;37.83;20.50;;;;;;;0.06;97.45;98927.59;5017403;28;20064;-77
2021/01/25 08:51:17;;;;;;;33.88;20.05;;;;;;;0.16;97.14;98937.78;5016042;28;20436;-76
2021/01/25 08:53:46;;;;;;;37.42;21.83;;;;;;;0.13;97.14;98944.00;5016921;28;20050;-76
2021/01/25 08:56:18;;;;;;;37.17;20.75;;;;;;;-0.02;97.02;98930.53;5017355;28;20130;-76
2021/01/25 08:58:45;;;;;;;37.50;21.25;;;;;;;0.05;97.32;98946.91;5016172;28;20132;-76
2021/01/25 09:01:20;;;;;;;36.95;20.30;;;;;;;0.02;97.52;98949.66;5015770;28;20061;-75
2021/01/25 09:03:47;;;;;;;39.92;22.35;;;;;;;0.06;97.29;98953.00;5016965;28;20098;-76
2021/01/25 09:06:13;;;;;;;39.85;22.10;;;;;;;0.04;97.45;98958.31;5016526;28;20111;-76
2021/01/25 09:08:39;;;;;;;37.25;22.20;;;;;;;0.01;97.77;98955.81;5016903;28;20163;-76
2021/01/25 09:11:07;;;;;;;33.92;20.55;;;;;;;0.02;97.08;98968.00;5015740;28;20354;-76
2021/01/25 09:13:33;;;;;;;37.22;22.30;;;;;;;-0.05;97.47;98966.53;5009440;28;20077;-76
2021/01/25 09:16:00;;;;;;;35.88;21.92;;;;;;;-0.11;97.61;98969.38;5005811;28;20050;-76
2021/01/25 09:18:26;;;;;;;36.53;21.90;;;;;;;-0.08;97.80;98983.22;5002763;28;20050;-76
2021/01/25 09:20:53;;;;;;;37.70;22.55;;;;;;;-0.08;98.13;98983.22;5004212;28;20460;-76
2021/01/25 09:23:19;;;;;;;41.63;23.40;;;;;;;-0.07;98.21;98991.94;4988320;28;20053;-77
2021/01/25 09:25:46;;;;;;;48.08;25.02;;;;;;;-0.07;97.75;98984.06;5007818;28;20053;-76
2021/01/25 09:28:13;;;;;;;46.70;23.98;;;;;;;0.05;97.78;99004.59;5006699;28;20367;-77
2021/01/25 09:30:40;;;;;;;42.00;24.30;;;;;;;0.06;97.38;99008.94;5005773;28;20360;-76
2021/01/25 09:33:10;;;;;;;41.00;23.73;;;;;;;0.12;97.22;99018.38;5002666;28;20054;-75
2021/01/25 09:35:37;;;;;;;38.70;23.52;;;;;;;0.11;96.83;99017.50;5005776;28;20045;-76
2021/01/25 09:38:03;;;;;;;42.85;24.33;;;;;;;0.05;96.83;99001.97;5004728;28;20042;-75
2021/01/25 09:40:33;;;;;;;43.40;25.33;;;;;;;0.23;97.08;99028.47;4989520;28;20064;-76
2021/01/25 09:43:00;;;;;;;44.50;26.27;;;;;;;0.30;96.81;99035.22;5006677;28;20093;-76
2021/01/25 09:45:26;;;;;;;44.80;26.35;;;;;;;0.28;96.18;99036.19;5004712;28;20058;-76
2021/01/25 09:47:52;;;;;;;45.00;26.00;;;;;;;0.27;95.77;99048.44;5006030;28;20482;-76
2021/01/25 09:50:19;;;;;;;49.17;28.02;;;;;;;0.17;96.05;99031.31;5002828;28;20503;-76
2021/01/25 09:52:47;;;;;;;50.78;27.63;;;;;;;0.32;96.40;99054.38;5006705;28;20045;-77
2021/01/25 09:55:15;;;;;;;55.67;29.90;;;;;;;0.31;96.25;99059.66;5005510;28;20122;-75
2021/01/25 09:57:41;;;;;;;61.05;30.85;;;;;;;0.30;96.37;99066.72;5007329;28;20153;-76
2021/01/25 10:00:10;;;;;;;57.33;30.10;;;;;;;0.32;95.31;99070.13;5004336;28;20054;-75
2021/01/25 10:02:37;;;;;;;60.90;31.20;;;;;;;0.35;95.50;99085.78;5005740;28;20046;-77
2021/01/25 10:05:05;;;;;;;58.40;32.47;;;;;;;0.21;95.26;99080.16;5006410;28;20107;-75
2021/01/25 10:07:34;;;;;;;58.05;31.27;;;;;;;0.34;95.59;99088.44;5005193;28;20057;-75
2021/01/25 10:10:08;;;;;;;61.55;30.02;;;;;;;0.33;95.70;99098.06;5003585;28;20049;-75
2021/01/25 10:12:34;;;;;;;58.80;29.90;;;;;;;0.31;95.49;99109.53;5003435;28;20050;-75
2021/01/25 10:15:00;;;;;;;59.63;31.15;;;;;;;0.15;95.81;99078.59;5003329;28;20108;-76
2021/01/25 10:17:30;;;;;;;55.63;30.25;;;;;;;0.39;95.47;99112.78;5005531;28;20057;-74
2021/01/25 10:19:56;;;;;;;60.05;31.67;;;;;;;0.26;95.16;99093.97;5005681;28;20404;-74
2021/01/25 10:22:23;;;;;;;54.25;29.58;;;;;;;0.38;95.28;99116.31;5007221;28;20057;-76
2021/01/25 10:24:50;;;;;;;53.63;28.52;;;;;;;0.33;95.22;99121.69;5000326;28;20050;-76
2021/01/25 10:27:16;;;;;;;56.67;29.75;;;;;;;0.41;95.23;99139.81;4988097;28;20344;-75
2021/01/25 10:29:42;;;;;;;53.17;29.05;;;;;;;0.48;94.94;99135.22;5006028;28;20062;-76
2021/01/25 10:32:15;;;;;;;49.17;27.70;;;;;;;0.42;95.19;99128.41;5002652;28;20046;-76
2021/01/25 10:34:42;;;;;;;50.95;29.48;;;;;;;0.48;94.47;99145.72;5004542;28;20057;-75
2021/01/25 10:37:09;;;;;;;54.28;29.00;;;;;;;0.59;94.48;99145.31;5001783;28;20053;-75
2021/01/25 10:39:35;;;;;;;47.72;27.92;;;;;;;0.60;94.52;99147.88;5003685;28;20049;-75
2021/01/25 10:42:02;;;;;;;44.33;28.33;;;;;;;0.71;93.89;99159.78;5007386;28;20061;-75
2021/01/25 10:44:29;;;;;;;40.80;26.55;;;;;;;0.80;93.57;99164.69;5004051;28;20116;-75
2021/01/25 10:46:55;;;;;;;42.50;25.48;;;;;;;0.83;93.38;99161.09;5005376;28;20037;-78
2021/01/25 10:49:21;;;;;;;42.75;25.60;;;;;;;0.72;92.95;99164.09;5011948;28;20081;-76
2021/01/25 10:51:47;;;;;;;40.22;26.20;;;;;;;0.85;92.98;99168.00;5008901;28;20045;-76
2021/01/25 10:54:25;;;;;;;38.30;25.52;;;;;;;0.82;92.49;99162.88;5013682;28;20043;-74
2021/01/25 10:56:52;;;;;;;42.30;25.52;;;;;;;0.84;92.71;99173.28;5003702;28;20129;-75
2021/01/25 10:59:18;;;;;;;42.42;26.25;;;;;;;0.90;92.80;99184.44;5011564;28;20046;-76
2021/01/25 11:01:44;;;;;;;44.60;27.20;;;;;;;0.92;92.43;99182.63;5038464;28;20085;-77
2021/01/25 11:04:10;;;;;;;43.40;27.38;;;;;;;0.90;92.28;99189.72;5009098;28;20054;-78
2021/01/25 11:06:37;;;;;;;49.13;28.92;;;;;;;0.94;93.27;99185.19;5006052;28;20043;-76
2021/01/25 11:09:04;;;;;;;44.70;28.85;;;;;;;1.11;92.53;99191.56;5005418;28;20097;-73
2021/01/25 11:11:31;;;;;;;48.10;28.23;;;;;;;1.07;92.51;99188.22;5000083;28;20054;-78
2021/01/25 11:13:57;;;;;;;40.80;27.08;;;;;;;1.08;91.96;99203.94;5009926;28;20069;-77
2021/01/25 11:16:23;;;;;;;40.45;26.50;;;;;;;1.05;92.12;99205.81;5009186;28;20057;-76
2021/01/25 11:18:49;;;;;;;39.55;25.80;;;;;;;1.00;92.19;99206.00;5006507;28;20079;-76
2021/01/25 11:21:16;;;;;;;41.00;27.88;;;;;;;0.99;92.37;99201.66;5008547;28;20053;-75
2021/01/25 11:23:42;;;;;;;43.10;26.15;;;;;;;1.17;92.21;99210.63;5009982;28;20450;-81
2021/01/25 11:26:10;;;;;;;43.65;28.42;;;;;;;1.18;92.50;99227.22;5008531;28;20053;-74
2021/01/25 11:28:36;;;;;;;45.97;27.70;;;;;;;1.24;92.24;99210.38;5004661;28;20351;-74
2021/01/25 11:31:06;;;;;;;42.75;27.42;;;;;;;1.31;91.41;99232.91;5014097;28;20038;-74
2021/01/25 11:33:33;;;;;;;36.50;24.42;;;;;;;1.22;90.73;99236.72;5013390;28;20136;-76
2021/01/25 11:35:59;;;;;;;39.35;26.38;;;;;;;1.27;91.02;99241.81;5007243;28;20452;-74